createdAt,value
2022-10-28T00:06:05.638Z,68.11
2022-10-28T00:08:32.577Z,67.90
2022-10-28T00:11:34.451Z,67.85
2022-10-28T00:14:22.632Z,68.86
2022-10-28T00:16:49.335Z,68.32
2022-10-28T00:19:16.357Z,68.42
2022-10-28T00:21:43.954Z,68.21
2022-10-28T00:24:12.115Z,68.58
2022-10-28T00:26:42.239Z,68.87
2022-10-28T01:04:06.799Z,68.04
2022-10-28T01:06:33.612Z,67.62
2022-10-28T01:09:00.431Z,68.03
2022-10-28T01:11:56.511Z,68.06
2022-10-28T01:15:00.727Z,68.06
2022-10-28T01:17:48.890Z,67.84
2022-10-28T01:21:08.564Z,68.23
2022-10-28T01:24:18.944Z,68.12
2022-10-28T01:27:07.335Z,68.02
2022-10-28T01:29:55.691Z,68.07
2022-10-28T01:32:34.429Z,68.50
2022-10-28T01:35:27.810Z,67.88
2022-10-28T04:11:01.246Z,71.55
2022-10-28T04:13:27.792Z,70.75
2022-10-28T04:15:54.329Z,70.45
2022-10-28T04:18:20.864Z,71.95
2022-10-28T04:20:47.415Z,71.47
2022-10-28T04:23:16.610Z,70.70
2022-10-28T04:25:43.144Z,70.46
2022-10-28T04:28:09.805Z,70.92
2022-10-28T04:30:36.349Z,72.18
2022-10-28T04:33:02.912Z,71.76
2022-10-28T04:35:29.464Z,71.85
2022-10-28T04:37:56.237Z,71.47
2022-10-28T04:40:22.964Z,71.62
2022-10-28T04:42:49.486Z,71.13
2022-10-28T04:45:16.133Z,72.12
2022-10-28T04:47:42.701Z,72.04
2022-10-28T04:50:09.399Z,71.43
2022-10-28T04:52:35.932Z,71.95
2022-10-28T04:55:02.527Z,72.07
2022-10-28T04:57:29.101Z,72.03
2022-10-28T04:59:55.628Z,72.29
2022-10-28T05:02:23.624Z,72.15
2022-10-28T05:04:50.270Z,73.20
2022-10-28T05:07:18.757Z,74.43
2022-10-28T05:09:48.026Z,73.33
2022-10-28T05:12:14.583Z,73.35
2022-10-28T05:14:41.114Z,73.79
2022-10-28T05:17:10.135Z,75.13
2022-10-28T05:19:36.728Z,76.21
2022-10-28T05:22:03.752Z,74.52
2022-10-28T05:24:30.270Z,74.56
2022-10-28T05:26:56.801Z,74.42
2022-10-28T05:29:23.414Z,74.73
2022-10-28T05:31:50.104Z,76.08
2022-10-28T05:34:16.670Z,77.74
2022-10-28T05:36:43.268Z,76.08
2022-10-28T05:39:09.909Z,77.10
2022-10-28T05:41:38.751Z,76.24
2022-10-28T05:44:05.990Z,75.81
2022-10-28T05:46:32.620Z,75.93
2022-10-28T05:48:59.177Z,75.98
2022-10-28T05:51:25.740Z,76.47
2022-10-28T05:53:52.400Z,75.53
2022-10-28T05:56:18.997Z,75.33
2022-10-28T05:58:45.634Z,76.14
2022-10-28T06:01:12.284Z,75.60
2022-10-28T06:03:38.915Z,74.93
2022-10-28T06:06:08.278Z,74.94
2022-10-28T06:08:34.862Z,75.70
2022-10-28T06:11:00.531Z,75.55
2022-10-28T06:13:27.064Z,75.93
2022-10-28T06:15:55.771Z,75.58
2022-10-28T06:18:23.079Z,74.90
2022-10-28T06:20:58.900Z,74.39
2022-10-28T06:23:27.209Z,75.46
2022-10-28T06:28:30.783Z,75.77
2022-10-28T06:31:05.597Z,74.60
2022-10-28T06:33:32.181Z,74.34
2022-10-28T06:35:59.661Z,74.97
2022-10-28T07:40:15.476Z,75.17
2022-10-28T07:42:43.034Z,74.70
2022-10-28T07:45:09.867Z,75.16
2022-10-28T07:47:36.514Z,74.06
2022-10-28T07:50:04.605Z,74.51
2022-10-28T07:52:31.333Z,75.69
2022-10-28T07:54:58.098Z,74.85
2022-10-28T08:08:55.173Z,77.35
2022-10-28T08:11:23.940Z,77.30
2022-10-28T08:13:52.098Z,77.02
2022-10-28T08:16:19.219Z,77.06
2022-10-28T08:18:48.915Z,76.49
2022-10-28T08:21:16.412Z,74.67
2022-10-28T08:23:46.872Z,75.08
2022-10-28T08:26:15.960Z,76.21
2022-10-28T10:04:54.134Z,74.89
2022-10-28T10:07:34.988Z,73.06
2022-10-28T10:26:16.300Z,73.39
2022-10-28T10:28:48.375Z,72.60
2022-10-28T10:31:29.831Z,72.54
2022-10-28T10:33:57.951Z,71.61
2022-10-28T10:36:31.623Z,71.89
2022-10-28T10:39:00.920Z,71.87
2022-10-28T11:45:51.220Z,70.78
2022-10-28T11:53:40.962Z,71.66
2022-10-28T11:56:19.612Z,70.71
2022-10-28T11:59:05.457Z,72.95
2022-10-28T12:01:40.314Z,73.94
2022-10-28T12:04:19.384Z,74.45
2022-10-28T12:07:06.889Z,73.05
2022-10-28T12:09:53.621Z,72.19
2022-10-28T12:20:24.496Z,71.50
2022-10-28T12:23:00.531Z,71.23
2022-10-28T12:25:31.417Z,70.60
2022-10-28T12:28:02.706Z,70.70
2022-10-28T12:30:36.239Z,72.38
2022-10-28T12:33:23.215Z,72.11
2022-10-28T12:36:29.585Z,71.36
2022-10-28T12:39:22.295Z,70.53
2022-10-28T12:51:38.158Z,71.65
2022-10-28T12:54:53.643Z,73.16
2022-10-28T12:57:23.230Z,72.93
2022-10-28T13:00:01.172Z,74.39
2022-10-28T13:02:55.937Z,74.13
2022-10-28T13:05:27.602Z,74.12
2022-10-28T13:08:19.371Z,72.63
2022-10-28T13:11:30.450Z,74.09
2022-10-28T13:14:21.203Z,74.15
2022-10-28T13:17:32.018Z,73.88
2022-10-28T13:20:35.952Z,73.20
2022-10-28T13:26:46.984Z,72.56
2022-10-28T13:29:41.613Z,73.12
2022-10-28T13:32:31.611Z,73.01
2022-10-28T13:35:09.575Z,73.75
2022-10-28T13:37:38.101Z,74.30
2022-10-28T13:40:05.278Z,73.48
2022-10-28T13:43:25.113Z,73.10
2022-10-28T13:48:29.795Z,74.21
2022-10-28T14:10:41.587Z,75.41
2022-10-28T14:27:55.863Z,72.53
2022-10-28T14:30:22.981Z,72.28
2022-10-28T14:32:49.548Z,72.19
2022-10-28T14:35:16.040Z,71.95
2022-10-28T14:38:00.962Z,71.67
2022-10-28T14:40:42.888Z,72.00
2022-10-28T14:52:26.918Z,73.00
2022-10-28T14:57:37.519Z,73.46
2022-10-28T15:02:52.590Z,74.44
2022-10-28T15:08:04.152Z,73.18
2022-10-28T15:10:38.318Z,73.58
2022-10-28T15:13:07.253Z,73.02
2022-10-28T15:15:37.324Z,72.51
2022-10-28T15:18:21.516Z,72.34
2022-10-28T15:20:48.222Z,72.05
2022-10-28T15:23:23.377Z,72.37
2022-10-28T15:26:12.835Z,72.35
2022-10-28T15:28:41.096Z,72.29
2022-10-28T15:31:08.823Z,72.01
2022-10-28T15:33:41.002Z,71.82
2022-10-28T15:36:17.792Z,71.89
2022-10-28T15:38:46.894Z,71.90
2022-10-28T15:41:22.863Z,72.55
2022-10-28T15:43:58.752Z,72.88
2022-10-28T15:46:26.273Z,73.25
2022-10-28T15:48:53.815Z,74.24
2022-10-28T15:51:21.532Z,74.57
2022-10-28T15:53:55.260Z,74.58
2022-10-28T15:56:25.376Z,74.59
2022-10-28T15:59:23.306Z,73.91
2022-10-28T16:01:50.171Z,74.29
2022-10-28T16:12:57.947Z,73.98
2022-10-28T16:15:24.516Z,73.79
2022-10-28T16:17:51.386Z,73.86
2022-10-28T16:20:22.011Z,74.36
2022-10-28T16:22:48.909Z,75.11
2022-10-28T16:25:18.034Z,75.23
2022-10-28T16:27:44.719Z,75.39
2022-10-28T16:30:11.705Z,74.99
2022-10-28T16:32:41.431Z,74.32
2022-10-28T16:35:22.990Z,75.08
2022-10-28T16:37:54.706Z,76.52
2022-10-28T16:40:49.892Z,77.36
2022-10-28T16:43:15.887Z,75.95
2022-10-28T16:45:42.394Z,75.83
2022-10-28T16:48:13.789Z,75.09
2022-10-28T16:50:42.956Z,74.50
2022-10-28T16:53:12.237Z,74.31
2022-10-28T16:55:38.832Z,73.89
2022-10-28T16:58:05.950Z,73.93
2022-10-28T17:00:32.726Z,74.24
2022-10-28T17:03:00.062Z,74.30
2022-10-28T17:05:26.677Z,73.64
2022-10-28T17:07:56.152Z,73.68
2022-10-28T17:10:23.606Z,73.59
2022-10-28T17:12:50.717Z,73.77
2022-10-28T17:15:17.975Z,73.98
2022-10-28T17:17:48.284Z,73.85
2022-10-28T17:20:14.936Z,74.12
2022-10-28T17:22:41.490Z,73.84
2022-10-28T17:25:09.233Z,73.63
2022-10-28T17:27:35.872Z,73.85
2022-10-28T17:30:09.405Z,74.45
2022-10-28T17:32:36.068Z,74.55
2022-10-28T17:35:02.695Z,74.06
2022-10-28T17:37:29.271Z,75.35
2022-10-28T17:39:57.093Z,77.04
2022-10-28T17:42:24.353Z,79.02
2022-10-28T17:44:53.634Z,79.13
2022-10-28T17:47:20.288Z,77.26
2022-10-28T17:49:46.880Z,76.63
2022-10-28T17:52:13.694Z,76.68
2022-10-28T17:54:40.279Z,75.57
2022-10-28T17:57:06.943Z,74.95
2022-10-28T18:02:35.676Z,74.80
2022-10-28T18:19:41.526Z,74.32
2022-10-28T18:25:10.248Z,74.24
2022-10-28T18:27:37.057Z,74.53
2022-10-28T18:30:03.895Z,74.41
2022-10-28T18:32:30.503Z,74.39
2022-10-28T18:34:57.164Z,74.16
2022-10-28T18:37:23.962Z,74.04
2022-10-28T18:39:50.535Z,74.58
2022-10-28T18:42:21.654Z,74.70
2022-10-28T18:44:48.643Z,74.80
2022-10-28T18:47:18.150Z,74.97
2022-10-28T18:49:45.717Z,75.03
2022-10-28T18:52:12.461Z,76.67
2022-10-28T18:54:39.210Z,77.65
2022-10-28T18:57:05.862Z,76.09
2022-10-28T18:59:32.490Z,75.30
2022-10-28T19:01:59.156Z,76.11
2022-10-28T19:04:25.931Z,77.00
2022-10-28T19:07:45.600Z,75.95
2022-10-28T19:10:37.283Z,76.12
2022-10-28T19:15:46.256Z,74.74
2022-10-28T19:24:13.609Z,74.93
2022-10-28T19:48:39.339Z,74.11
2022-10-28T20:20:39.529Z,73.81
2022-10-28T20:45:15.475Z,73.09
2022-10-28T20:47:42.100Z,72.78
2022-10-28T20:50:09.208Z,72.53
2022-10-28T20:52:35.747Z,72.45
2022-10-28T20:55:02.309Z,72.78
2022-10-28T20:57:28.857Z,72.91
2022-10-28T21:54:13.689Z,72.32
2022-10-28T21:56:40.306Z,72.28
2022-10-28T21:59:31.370Z,72.50
2022-10-28T22:01:58.215Z,72.47
2022-10-28T22:04:25.228Z,72.71
2022-10-28T22:06:51.804Z,73.01
2022-10-28T22:09:18.433Z,73.17
2022-10-28T22:11:45.056Z,74.28
2022-10-28T22:14:11.632Z,74.27
2022-10-28T22:16:38.297Z,73.32
2022-10-28T22:19:07.459Z,72.88
2022-10-28T22:21:40.122Z,72.80
2022-10-28T22:24:07.500Z,72.64
2022-10-28T22:26:34.299Z,72.56
2022-10-28T22:29:22.871Z,72.50
2022-10-28T22:31:49.512Z,72.91
2022-10-28T22:34:16.237Z,72.78
2022-10-28T22:36:44.926Z,72.49
2022-10-28T22:43:30.479Z,72.20
2022-10-28T22:48:38.669Z,72.13
2022-10-28T22:51:05.414Z,72.42
2022-10-28T22:53:32.005Z,72.20
2022-10-28T22:55:58.778Z,72.26
2022-10-28T22:58:27.230Z,72.30
2022-10-28T23:00:53.813Z,71.96
2022-10-28T23:03:20.365Z,72.09
2022-10-28T23:05:46.971Z,72.14
2022-10-28T23:08:15.828Z,72.21
2022-10-28T23:10:42.578Z,72.18
2022-10-28T23:13:12.747Z,72.01
2022-10-28T23:15:39.351Z,72.05
2022-10-28T23:18:05.935Z,71.80
2022-10-28T23:20:32.467Z,71.68
2022-10-28T23:22:59.018Z,71.41
2022-10-28T23:25:25.527Z,71.54
2022-10-28T23:27:52.463Z,72.33
2022-10-28T23:30:19.233Z,71.93
2022-10-28T23:32:45.794Z,71.87
2022-10-28T23:35:12.372Z,71.76
2022-10-28T23:37:38.925Z,71.92
2022-10-28T23:40:06.066Z,71.91
2022-10-28T23:42:32.671Z,72.11
2022-10-28T23:44:59.201Z,71.84
2022-10-28T23:47:25.760Z,71.80
2022-10-28T23:49:52.966Z,71.75
2022-10-28T23:52:19.524Z,71.43
2022-10-28T23:54:46.074Z,71.35
2022-10-28T23:57:12.883Z,71.44
